Weather at Kipnuk Airport

Public forecast

Using degrees Fahrenheit for public forecast. Weather courtesy of forecast.io.

Current aviation weather report (METAR) for Kipnuk Airport

Retrieved 2021/04/12 11:56 UTC (40 minutes ago):

PAKI 121156Z AUTO 18021KT 10SM OVC035 01/M01 A2937 RMK AO2 SLP947 60000 70002 T00061006 10006 20006 51011 FZRANO

Closest aviation forecast (TAF) to Kipnuk Airport

Closest forecast is Bethel Airport, 82.6 nm (153.0 km) NE. Retrieved 2021/04/12 12:33 UTC (3 minutes ago):

TAF PABE 121131Z 1212/1312 17020KT 4SM -SHSN OVC005 TEMPO 1212/1216 6SM OVC007 FM122100 16013KT P6SM -SHSN OVC007 FM130300 14013KT 4SM -SHRASN OVC007 FM130600 14008KT P6SM OVC015